Time;durP1;ratioP1;P1;durP2;ratioP2;P2;SDS_P1;SDS_P2;PMS_P1;PMS_P2;Temp;Humidity;BMP_temperature;BMP_pressure;BME280_temperature;BME280_humidity;BME280_pressure;Samples;Min_cycle;Max_cycle;Signal;HPM_P1;HPM_P2
2021/07/15 00:01:52;;;;;;;25.80;12.10;;;18.20;99.90;;;;;;5067831;28;20208;-66
2021/07/15 00:04:41;;;;;;;26.73;11.83;;;18.20;99.90;;;;;;5081253;28;20198;-66
2021/07/15 00:07:29;;;;;;;22.53;11.73;;;18.30;99.90;;;;;;5086518;28;20274;-66
2021/07/15 00:10:21;;;;;;;24.33;11.67;;;18.20;99.90;;;;;;5091984;28;20209;-66
2021/07/15 00:13:09;;;;;;;24.80;11.87;;;18.20;99.90;;;;;;5092949;28;20202;-65
2021/07/15 00:15:58;;;;;;;23.53;12.17;;;18.20;99.90;;;;;;5091955;28;20205;-66
2021/07/15 00:18:48;;;;;;;23.20;12.20;;;18.30;99.90;;;;;;5083403;28;20207;-66
2021/07/15 00:21:37;;;;;;;24.67;11.47;;;18.20;99.90;;;;;;5077099;28;20226;-66
2021/07/15 00:24:24;;;;;;;28.97;13.43;;;18.30;99.90;;;;;;5071727;28;20298;-68
2021/07/15 00:27:12;;;;;;;26.33;12.57;;;18.20;99.90;;;;;;5072575;28;20198;-66
2021/07/15 00:29:59;;;;;;;19.73;11.53;;;18.20;99.90;;;;;;5063646;28;20238;-66
2021/07/15 00:32:47;;;;;;;20.73;10.23;;;18.20;99.90;;;;;;5071640;28;20232;-65
2021/07/15 00:35:35;;;;;;;25.87;11.67;;;18.20;99.90;;;;;;5071474;28;20198;-66
2021/07/15 00:38:24;;;;;;;24.53;11.57;;;18.20;99.90;;;;;;5070448;28;20259;-65
2021/07/15 00:41:11;;;;;;;22.67;12.17;;;18.10;99.90;;;;;;5072951;28;20559;-66
2021/07/15 00:43:59;;;;;;;22.23;12.10;;;18.20;99.90;;;;;;5070833;28;20202;-66
2021/07/15 00:46:46;;;;;;;24.37;10.57;;;18.20;99.90;;;;;;5072205;28;20602;-66
2021/07/15 00:49:34;;;;;;;19.43;10.07;;;18.20;99.90;;;;;;5072676;28;20211;-66
2021/07/15 00:52:21;;;;;;;20.03;10.23;;;18.10;99.90;;;;;;5071545;28;20211;-66
2021/07/15 00:55:15;;;;;;;21.63;9.90;;;18.10;99.90;;;;;;5071133;28;20590;-66
2021/07/15 00:58:03;;;;;;;17.00;9.10;;;18.20;99.90;;;;;;5071624;28;20210;-66
2021/07/15 01:00:50;;;;;;;16.90;8.57;;;18.10;99.90;;;;;;5071342;28;20542;-66
2021/07/15 01:03:38;;;;;;;21.00;8.20;;;18.00;99.90;;;;;;5071361;28;20203;-65
2021/07/15 01:06:25;;;;;;;18.27;8.50;;;18.00;99.90;;;;;;5070818;28;20191;-66
2021/07/15 01:09:13;;;;;;;15.37;7.20;;;17.90;99.90;;;;;;5070072;28;20214;-65
2021/07/15 01:12:22;;;;;;;15.73;6.90;;;17.90;99.90;;;;;;5070169;28;20207;-66
2021/07/15 01:15:11;;;;;;;13.53;6.90;;;17.80;99.90;;;;;;5071548;28;20631;-66
2021/07/15 01:18:08;;;;;;;14.03;6.03;;;17.80;99.90;;;;;;5070819;28;20218;-66
2021/07/15 01:21:09;;;;;;;15.90;5.50;;;17.80;99.90;;;;;;5080674;28;20241;-65
2021/07/15 01:24:23;;;;;;;11.53;4.97;;;17.70;99.90;;;;;;5091552;28;20869;-66
2021/07/15 01:27:30;;;;;;;13.20;4.73;;;17.60;99.90;;;;;;5091448;28;20193;-66
2021/07/15 01:30:19;;;;;;;14.83;4.00;;;17.60;99.90;;;;;;5091507;28;20233;-66
2021/07/15 01:33:15;;;;;;;9.73;4.00;;;17.50;99.90;;;;;;5092134;28;20205;-66
2021/07/15 01:36:04;;;;;;;11.00;4.43;;;17.40;99.90;;;;;;5091135;28;20200;-66
2021/07/15 01:38:55;;;;;;;14.67;4.97;;;17.50;99.90;;;;;;5091146;28;20215;-66
2021/07/15 01:41:44;;;;;;;9.13;4.87;;;17.50;99.90;;;;;;5091194;28;20204;-66
2021/07/15 01:44:32;;;;;;;11.73;4.30;;;17.50;99.90;;;;;;5090967;28;20193;-66
2021/07/15 01:47:21;;;;;;;12.10;4.20;;;17.50;99.90;;;;;;5091103;28;20238;-65
2021/07/15 01:50:09;;;;;;;7.80;3.50;;;17.40;99.90;;;;;;5091775;28;20209;-66
2021/07/15 01:52:57;;;;;;;9.33;3.80;;;17.50;99.90;;;;;;5091205;28;20197;-66
2021/07/15 01:55:44;;;;;;;8.50;4.30;;;17.50;99.90;;;;;;5090988;28;20205;-66
2021/07/15 01:58:33;;;;;;;7.73;3.83;;;17.60;99.90;;;;;;5090901;28;20302;-67
2021/07/15 02:01:20;;;;;;;10.83;4.60;;;17.60;99.90;;;;;;5091112;28;20212;-66
2021/07/15 02:04:09;;;;;;;9.93;5.07;;;17.60;99.90;;;;;;5090969;28;20223;-66
2021/07/15 02:06:57;;;;;;;9.77;4.40;;;17.70;99.90;;;;;;5082796;28;20240;-66
2021/07/15 02:09:44;;;;;;;10.00;4.90;;;17.70;99.90;;;;;;5090988;28;20205;-66
2021/07/15 02:12:31;;;;;;;10.13;4.63;;;17.60;99.90;;;;;;5090739;28;20204;-66
2021/07/15 02:15:19;;;;;;;12.60;4.77;;;17.70;99.90;;;;;;5091110;28;20740;-66
2021/07/15 02:18:10;;;;;;;13.50;5.30;;;17.70;99.90;;;;;;5084622;28;20213;-66
2021/07/15 02:20:59;;;;;;;12.47;4.97;;;17.70;99.90;;;;;;5090553;28;20228;-66
2021/07/15 02:23:46;;;;;;;15.83;5.37;;;17.70;99.90;;;;;;5090599;28;20204;-66
2021/07/15 02:26:34;;;;;;;11.03;5.80;;;17.70;99.90;;;;;;5090706;28;20213;-67
2021/07/15 02:29:21;;;;;;;15.57;5.77;;;17.70;99.90;;;;;;5090769;28;20200;-66
2021/07/15 02:32:10;;;;;;;12.40;6.03;;;17.70;99.90;;;;;;5091523;28;20874;-65
2021/07/15 02:35:01;;;;;;;14.00;6.07;;;17.80;99.90;;;;;;5090707;28;20228;-66
2021/07/15 02:37:50;;;;;;;13.20;6.40;;;17.80;99.90;;;;;;5090925;28;20227;-66
2021/07/15 02:40:38;;;;;;;13.93;6.50;;;17.80;99.90;;;;;;5090725;28;20675;-65
2021/07/15 02:43:25;;;;;;;13.50;6.93;;;17.90;99.90;;;;;;5090879;28;20200;-65
2021/07/15 02:46:13;;;;;;;11.77;6.27;;;17.90;99.90;;;;;;5090370;28;20369;-66
2021/07/15 02:49:00;;;;;;;14.63;6.80;;;17.90;99.90;;;;;;5090613;28;20197;-66
2021/07/15 02:51:48;;;;;;;19.73;6.67;;;17.90;99.90;;;;;;5090578;28;20324;-65
2021/07/15 02:54:37;;;;;;;12.87;6.50;;;17.90;99.90;;;;;;5084053;28;20288;-66
2021/07/15 02:57:29;;;;;;;15.43;6.93;;;17.90;99.90;;;;;;5090352;28;20384;-66
2021/07/15 03:00:18;;;;;;;10.47;6.97;;;18.00;99.90;;;;;;5090497;28;20646;-66
2021/07/15 03:03:08;;;;;;;15.33;7.17;;;18.00;99.90;;;;;;5090824;28;20707;-66
2021/07/15 03:06:00;;;;;;;16.87;6.77;;;18.00;99.90;;;;;;5085215;28;20759;-66
2021/07/15 03:08:51;;;;;;;10.23;6.87;;;18.00;99.90;;;;;;5094004;28;20233;-66
2021/07/15 03:11:43;;;;;;;16.33;6.97;;;18.00;99.90;;;;;;5093997;28;20216;-66
2021/07/15 03:14:31;;;;;;;12.10;6.70;;;18.00;99.90;;;;;;5094378;28;20204;-66
2021/07/15 03:17:20;;;;;;;16.40;6.53;;;18.00;99.90;;;;;;5093973;28;20647;-65
2021/07/15 03:20:11;;;;;;;12.97;6.40;;;17.90;99.90;;;;;;5086898;28;20238;-66
2021/07/15 03:23:00;;;;;;;11.07;6.10;;;17.90;99.90;;;;;;5093774;28;20245;-65
2021/07/15 03:25:49;;;;;;;9.90;5.80;;;17.90;99.90;;;;;;5094145;28;20266;-65
2021/07/15 03:28:40;;;;;;;12.40;6.23;;;17.90;99.90;;;;;;5093836;28;20678;-65
2021/07/15 03:31:30;;;;;;;10.80;5.90;;;17.90;99.90;;;;;;5093543;28;20207;-66
2021/07/15 03:34:19;;;;;;;14.27;6.53;;;17.90;99.90;;;;;;5093876;28;20219;-66
2021/07/15 03:37:08;;;;;;;19.00;6.77;;;17.90;99.90;;;;;;5093551;28;20209;-66
2021/07/15 03:39:57;;;;;;;13.07;6.60;;;17.90;99.90;;;;;;5093607;28;20648;-66
2021/07/15 03:42:47;;;;;;;13.70;6.67;;;17.90;99.90;;;;;;5093333;28;20197;-66
2021/07/15 03:46:15;;;;;;;12.93;6.57;;;17.90;99.90;;;;;;5093693;28;20741;-65
2021/07/15 03:49:04;;;;;;;15.00;6.77;;;17.90;99.90;;;;;;5093722;28;20200;-66
2021/07/15 03:52:04;;;;;;;17.27;6.87;;;18.00;99.90;;;;;;5093454;28;20228;-66
2021/07/15 03:54:52;;;;;;;11.63;6.87;;;18.00;99.90;;;;;;5093507;28;20226;-65
2021/07/15 03:57:39;;;;;;;14.63;7.47;;;18.00;99.90;;;;;;5093165;28;20306;-65
2021/07/15 04:00:27;;;;;;;11.47;6.47;;;18.00;99.90;;;;;;5093236;28;20261;-66
2021/07/15 04:03:17;;;;;;;13.23;7.00;;;18.00;99.90;;;;;;5093178;28;20688;-66
2021/07/15 04:06:06;;;;;;;13.10;6.53;;;18.00;99.90;;;;;;5088115;28;20564;-66
2021/07/15 04:08:54;;;;;;;12.90;6.57;;;18.10;99.90;;;;;;5093086;28;20599;-66
2021/07/15 04:11:43;;;;;;;13.90;6.70;;;18.10;99.90;;;;;;5093126;28;20206;-65
2021/07/15 04:14:37;;;;;;;16.63;7.03;;;18.10;99.90;;;;;;5092986;28;20202;-66
2021/07/15 04:17:24;;;;;;;13.10;6.70;;;18.10;99.90;;;;;;5087446;28;20203;-65
2021/07/15 04:20:12;;;;;;;13.90;6.70;;;18.10;99.90;;;;;;5091911;28;20691;-66
2021/07/15 04:23:01;;;;;;;14.27;7.20;;;18.10;99.90;;;;;;5092662;28;20198;-65
2021/07/15 04:25:49;;;;;;;11.17;7.50;;;18.10;99.90;;;;;;5092383;28;20215;-66
2021/07/15 04:28:37;;;;;;;15.47;6.90;;;18.20;99.90;;;;;;5092659;28;20561;-66
2021/07/15 04:31:46;;;;;;;24.30;11.47;;;18.20;99.90;;;;;;5092416;28;20208;-66
2021/07/15 04:34:34;;;;;;;18.17;8.33;;;18.20;99.90;;;;;;5092322;28;20215;-66
2021/07/15 04:37:22;;;;;;;43.67;18.83;;;18.20;99.90;;;;;;5092378;28;20613;-65
2021/07/15 04:40:13;;;;;;;33.60;13.27;;;18.20;99.90;;;;;;5092220;28;20190;-66
2021/07/15 04:43:02;;;;;;;18.73;9.83;;;18.20;99.90;;;;;;5092422;28;20557;-66
2021/07/15 04:45:50;;;;;;;14.37;7.03;;;18.30;99.90;;;;;;5075560;28;20224;-66
2021/07/15 04:48:37;;;;;;;11.97;7.00;;;18.30;99.90;;;;;;5092146;28;20213;-66
2021/07/15 04:51:25;;;;;;;16.03;7.17;;;18.30;99.90;;;;;;5092046;28;20201;-65
2021/07/15 04:54:13;;;;;;;15.10;8.17;;;18.40;99.90;;;;;;5092419;28;20763;-66
2021/07/15 04:57:02;;;;;;;14.00;7.63;;;18.40;99.90;;;;;;5086046;28;20198;-65
2021/07/15 04:59:50;;;;;;;18.67;7.87;;;18.30;99.90;;;;;;5091819;28;21055;-66
2021/07/15 05:02:38;;;;;;;16.27;8.10;;;18.30;99.90;;;;;;5091471;28;20213;-66
2021/07/15 05:05:25;;;;;;;19.90;8.43;;;18.30;99.90;;;;;;5092661;28;20262;-66
2021/07/15 05:08:13;;;;;;;14.47;8.33;;;18.30;99.90;;;;;;5085551;28;20198;-65
2021/07/15 05:11:01;;;;;;;15.40;7.50;;;18.30;99.90;;;;;;5091805;28;20205;-66
2021/07/15 05:13:50;;;;;;;14.73;7.87;;;18.30;99.90;;;;;;5091225;28;20234;-66
2021/07/15 05:16:38;;;;;;;14.97;7.63;;;18.20;99.90;;;;;;5090209;28;20194;-66
2021/07/15 05:19:25;;;;;;;15.87;7.53;;;18.20;99.90;;;;;;5086489;28;20213;-66
2021/07/15 05:22:13;;;;;;;14.23;7.87;;;18.20;99.90;;;;;;5089486;28;20229;-66
2021/07/15 05:25:01;;;;;;;14.67;7.43;;;18.20;99.90;;;;;;5086425;28;20208;-66
2021/07/15 05:27:48;;;;;;;12.87;7.10;;;18.20;99.90;;;;;;5095340;28;20206;-66
2021/07/15 05:30:37;;;;;;;11.90;6.73;;;18.20;99.90;;;;;;5098382;28;20205;-66
2021/07/15 05:33:27;;;;;;;13.93;7.63;;;18.20;99.90;;;;;;5091011;28;20678;-65
2021/07/15 05:36:15;;;;;;;14.77;8.33;;;18.20;99.90;;;;;;5089136;28;20203;-66
2021/07/15 05:39:02;;;;;;;14.70;7.73;;;18.20;99.90;;;;;;5090888;28;20226;-66
2021/07/15 05:41:50;;;;;;;17.83;8.53;;;18.20;99.90;;;;;;5085111;28;20199;-66
2021/07/15 05:44:38;;;;;;;15.83;7.70;;;18.20;99.90;;;;;;5083912;28;20321;-65
2021/07/15 05:47:27;;;;;;;14.40;8.03;;;18.20;99.90;;;;;;5087762;28;20367;-65
2021/07/15 05:50:14;;;;;;;19.17;8.80;;;18.30;99.90;;;;;;5090551;28;20194;-65
2021/07/15 05:53:02;;;;;;;15.13;8.77;;;18.30;99.90;;;;;;5090365;28;20205;-66
2021/07/15 05:55:49;;;;;;;17.43;10.20;;;18.30;99.90;;;;;;5091067;28;20203;-67
2021/07/15 05:58:37;;;;;;;17.23;10.10;;;18.30;99.90;;;;;;5083700;28;20575;-66
2021/07/15 06:01:25;;;;;;;12.80;9.07;;;18.40;99.90;;;;;;5090604;28;20293;-66
2021/07/15 06:04:14;;;;;;;11.50;7.73;;;18.40;99.90;;;;;;5089795;28;20208;-65
2021/07/15 06:07:01;;;;;;;15.20;8.50;;;18.40;99.90;;;;;;5090371;28;20556;-66
2021/07/15 06:09:49;;;;;;;16.00;7.60;;;18.60;99.90;;;;;;5090321;28;20225;-66
2021/07/15 06:12:37;;;;;;;13.30;6.67;;;18.70;99.90;;;;;;5090611;28;20928;-66
2021/07/15 06:15:25;;;;;;;14.23;6.80;;;18.80;99.90;;;;;;5090263;28;20273;-66
2021/07/15 06:18:13;;;;;;;13.57;6.43;;;19.00;99.90;;;;;;5084193;28;20307;-66
2021/07/15 06:21:04;;;;;;;14.53;6.70;;;18.90;99.90;;;;;;5079904;28;20234;-66
2021/07/15 06:23:51;;;;;;;13.00;6.83;;;18.80;99.90;;;;;;5068977;28;20204;-65
2021/07/15 06:26:39;;;;;;;10.77;6.43;;;18.80;99.90;;;;;;5070306;28;20209;-65
2021/07/15 06:29:27;;;;;;;12.70;6.80;;;18.80;99.90;;;;;;5070607;28;20998;-65
2021/07/15 06:32:14;;;;;;;10.23;6.77;;;18.70;99.90;;;;;;5068822;28;20208;-65
2021/07/15 06:35:02;;;;;;;13.63;6.40;;;18.70;99.90;;;;;;5070263;28;20211;-65
2021/07/15 06:37:52;;;;;;;18.10;7.83;;;18.70;99.90;;;;;;5069906;28;20211;-65
2021/07/15 06:40:40;;;;;;;13.63;7.00;;;18.70;99.90;;;;;;5069423;28;20208;-66
2021/07/15 06:43:27;;;;;;;13.50;6.70;;;18.70;99.90;;;;;;5073221;28;20214;-66
2021/07/15 06:46:15;;;;;;;15.13;7.87;;;18.70;99.90;;;;;;5074249;28;20302;-65
2021/07/15 06:49:02;;;;;;;15.83;7.67;;;18.70;99.90;;;;;;5074059;28;20681;-65
2021/07/15 06:51:50;;;;;;;19.33;8.47;;;18.60;99.90;;;;;;5073723;28;20578;-65
2021/07/15 06:54:39;;;;;;;16.27;8.30;;;18.70;99.90;;;;;;5064560;28;20636;-66
2021/07/15 06:57:27;;;;;;;13.03;8.07;;;18.60;99.90;;;;;;5069882;28;20202;-65
2021/07/15 07:00:16;;;;;;;21.57;11.37;;;18.50;99.90;;;;;;5071350;28;20667;-66
2021/07/15 07:03:03;;;;;;;20.50;10.47;;;18.50;99.90;;;;;;5073789;28;20211;-66
2021/07/15 07:05:51;;;;;;;24.00;10.63;;;18.50;99.90;;;;;;5073813;28;20200;-66
2021/07/15 07:08:39;;;;;;;14.93;9.17;;;18.50;99.90;;;;;;5072199;28;20210;-66
2021/07/15 07:11:28;;;;;;;15.33;8.07;;;18.40;99.90;;;;;;5075266;28;20210;-66
2021/07/15 07:14:15;;;;;;;13.93;7.27;;;18.40;99.90;;;;;;5078793;28;20201;-65
2021/07/15 07:17:03;;;;;;;15.33;8.63;;;18.30;99.90;;;;;;5076620;28;20194;-65
2021/07/15 07:19:51;;;;;;;18.90;10.07;;;18.30;99.90;;;;;;5073356;28;20229;-66
2021/07/15 07:22:39;;;;;;;16.23;9.33;;;18.30;99.90;;;;;;5092870;28;20625;-66
2021/07/15 07:25:26;;;;;;;10.53;7.43;;;18.20;99.90;;;;;;5092214;28;20649;-66
2021/07/15 07:28:15;;;;;;;10.07;6.07;;;18.20;99.90;;;;;;5093332;28;20198;-65
2021/07/15 07:31:03;;;;;;;13.17;6.90;;;18.10;99.90;;;;;;5099010;28;20197;-66
2021/07/15 07:33:51;;;;;;;13.97;6.73;;;18.00;99.90;;;;;;5093863;28;20214;-65
2021/07/15 07:36:38;;;;;;;12.80;5.30;;;18.00;99.90;;;;;;5093240;28;20204;-66
2021/07/15 07:39:26;;;;;;;12.67;6.80;;;18.00;99.90;;;;;;5093260;28;20221;-65
2021/07/15 07:42:14;;;;;;;8.40;3.97;;;17.90;99.90;;;;;;5097141;28;20205;-65
2021/07/15 07:45:03;;;;;;;11.13;4.00;;;17.80;99.90;;;;;;5106086;28;20225;-65
2021/07/15 07:47:51;;;;;;;9.07;4.17;;;17.70;99.90;;;;;;5091636;28;20206;-65
2021/07/15 07:50:38;;;;;;;11.57;4.37;;;17.70;99.90;;;;;;5091423;28;20202;-65
2021/07/15 07:53:26;;;;;;;8.47;3.73;;;17.60;99.90;;;;;;5093094;28;20195;-65
2021/07/15 07:56:14;;;;;;;10.67;4.10;;;17.60;99.90;;;;;;5093056;28;20236;-65
2021/07/15 07:59:02;;;;;;;6.30;3.40;;;17.50;99.90;;;;;;5093095;28;20226;-65
2021/07/15 08:01:51;;;;;;;12.00;4.67;;;17.40;99.90;;;;;;5093137;28;20670;-65
2021/07/15 08:04:38;;;;;;;23.97;11.63;;;17.30;99.90;;;;;;5092431;28;20210;-65
2021/07/15 08:07:26;;;;;;;17.23;7.90;;;17.30;99.90;;;;;;5092383;28;20198;-65
2021/07/15 08:10:14;;;;;;;8.23;4.93;;;17.30;99.90;;;;;;5091873;28;20645;-65
2021/07/15 08:13:01;;;;;;;29.60;12.83;;;17.30;99.90;;;;;;5085562;28;20640;-66
2021/07/15 08:15:50;;;;;;;10.97;7.73;;;17.30;99.90;;;;;;5088061;28;20626;-66
2021/07/15 08:18:39;;;;;;;9.73;5.27;;;17.30;99.90;;;;;;5091037;28;20554;-66
2021/07/15 08:21:27;;;;;;;7.93;4.10;;;17.30;99.90;;;;;;5086976;28;20351;-66
2021/07/15 08:24:14;;;;;;;8.70;4.23;;;17.30;99.90;;;;;;5086055;28;20198;-65
2021/07/15 08:27:02;;;;;;;7.03;4.00;;;17.40;99.90;;;;;;5092408;28;20209;-66
2021/07/15 08:29:50;;;;;;;8.10;5.10;;;17.40;99.90;;;;;;5092949;28;20200;-66
2021/07/15 08:32:38;;;;;;;9.23;3.90;;;17.50;99.90;;;;;;5091117;28;20214;-66
2021/07/15 08:35:27;;;;;;;10.33;4.27;;;17.40;99.90;;;;;;5092489;28;20557;-66
2021/07/15 08:38:16;;;;;;;9.37;5.10;;;17.50;99.90;;;;;;5092306;28;20196;-66
2021/07/15 08:41:04;;;;;;;9.87;5.70;;;17.60;99.90;;;;;;5086120;28;20208;-67
2021/07/15 08:43:51;;;;;;;13.23;5.23;;;17.60;99.90;;;;;;5092299;28;20213;-66
2021/07/15 08:46:39;;;;;;;6.10;3.80;;;17.60;99.90;;;;;;5083088;28;20218;-65
2021/07/15 08:49:27;;;;;;;7.17;3.80;;;17.60;99.90;;;;;;5091446;28;20204;-65
2021/07/15 08:52:16;;;;;;;14.37;6.23;;;17.70;99.90;;;;;;5092249;28;20650;-66
2021/07/15 08:55:19;;;;;;;7.83;4.77;;;17.80;99.90;;;;;;5092044;28;20222;-66
2021/07/15 08:58:06;;;;;;;6.60;3.40;;;17.90;99.90;;;;;;5092307;28;20207;-66
2021/07/15 09:00:53;;;;;;;7.20;3.60;;;18.00;99.90;;;;;;5082810;28;20232;-66
2021/07/15 09:03:41;;;;;;;7.40;3.50;;;18.20;99.90;;;;;;5091477;28;20203;-65
2021/07/15 09:06:29;;;;;;;6.83;3.40;;;18.40;99.90;;;;;;5092094;28;20572;-65
2021/07/15 09:09:18;;;;;;;4.73;3.17;;;18.60;99.90;;;;;;5091602;28;20199;-66
2021/07/15 09:12:06;;;;;;;8.57;3.17;;;19.00;99.90;;;;;;5090813;28;20244;-65
2021/07/15 09:14:55;;;;;;;35.53;9.93;;;19.30;99.90;;;;;;5090878;28;20257;-65
2021/07/15 09:17:42;;;;;;;22.47;8.00;;;19.80;99.90;;;;;;5090854;28;20203;-65
2021/07/15 09:20:30;;;;;;;6.17;2.87;;;20.20;99.90;;;;;;5090598;28;20234;-65
2021/07/15 09:23:18;;;;;;;5.23;2.47;;;20.50;99.90;;;;;;5090643;28;20661;-65
2021/07/15 09:26:07;;;;;;;8.20;2.60;;;20.70;99.90;;;;;;5090776;28;20199;-65
2021/07/15 09:28:54;;;;;;;5.47;2.77;;;20.90;99.90;;;;;;5091147;28;20200;-66
2021/07/15 09:31:52;;;;;;;5.33;2.30;;;21.10;99.90;;;;;;5091210;28;20199;-65
2021/07/15 09:34:40;;;;;;;5.87;2.20;;;21.20;99.90;;;;;;5087623;28;20207;-65
2021/07/15 09:37:28;;;;;;;6.83;2.47;;;21.30;99.90;;;;;;5090969;28;20207;-65
2021/07/15 09:40:15;;;;;;;4.37;2.40;;;21.40;99.90;;;;;;5083493;28;20246;-66
2021/07/15 09:43:17;;;;;;;5.33;2.63;;;21.40;99.90;;;;;;5090996;28;20200;-65
2021/07/15 09:46:16;;;;;;;3.40;2.33;;;21.50;99.90;;;;;;5090875;28;20323;-65
2021/07/15 09:49:06;;;;;;;7.43;2.70;;;21.70;99.90;;;;;;5090683;28;20227;-66
2021/07/15 09:51:57;;;;;;;3.83;2.53;;;21.80;99.90;;;;;;5090869;28;20204;-65
2021/07/15 09:54:45;;;;;;;6.60;2.70;;;21.90;99.90;;;;;;5090453;28;20546;-65
2021/07/15 09:57:32;;;;;;;3.50;2.37;;;22.10;99.90;;;;;;5085187;28;20667;-64
2021/07/15 10:00:23;;;;;;;6.33;2.50;;;22.20;99.90;;;;;;5090246;28;20208;-65
2021/07/15 10:03:11;;;;;;;6.07;2.87;;;22.30;99.90;;;;;;5088477;28;20204;-65
2021/07/15 10:06:02;;;;;;;7.30;2.83;;;22.40;99.90;;;;;;5083699;28;20651;-65
2021/07/15 10:08:53;;;;;;;5.20;2.67;;;22.30;99.90;;;;;;5085194;28;20204;-66
2021/07/15 10:11:41;;;;;;;6.30;3.20;;;22.60;99.90;;;;;;5090794;28;20210;-65
2021/07/15 10:14:36;;;;;;;5.97;2.63;;;22.90;99.90;;;;;;5090428;28;20916;-67
2021/07/15 10:20:19;;;;;;;5.13;2.93;;;23.10;99.90;;;;;;5148112;27;20785;-66
2021/07/15 10:23:07;;;;;;;6.70;2.97;;;23.40;99.90;;;;;;5136079;27;20658;-66
2021/07/15 10:25:54;;;;;;;6.63;2.87;;;23.70;99.90;;;;;;5130140;27;20199;-66
2021/07/15 10:28:44;;;;;;;6.63;2.97;;;23.80;99.90;;;;;;5132454;27;20202;-66
2021/07/15 10:31:32;;;;;;;6.23;2.70;;;23.80;99.90;;;;;;5129034;28;20221;-66
2021/07/15 10:34:20;;;;;;;5.37;3.00;;;24.10;99.90;;;;;;5128192;28;20206;-66
2021/07/15 10:37:09;;;;;;;4.43;2.80;;;24.40;99.90;;;;;;5129498;27;20230;-66
2021/07/15 10:39:57;;;;;;;9.27;3.33;;;24.50;99.90;;;;;;5127639;27;20203;-67
2021/07/15 10:42:44;;;;;;;6.82;3.50;;;24.70;99.90;;;;;;5142438;27;20200;-66
2021/07/15 10:45:32;;;;;;;7.32;3.65;;;24.90;99.90;;;;;;5141189;27;20534;-66
2021/07/15 10:48:19;;;;;;;6.80;3.75;;;25.30;99.90;;;;;;5151775;27;20193;-66
2021/07/15 10:51:07;;;;;;;7.65;3.75;;;25.60;99.90;;;;;;5167097;27;20201;-66
2021/07/15 10:53:56;;;;;;;8.57;3.67;;;25.90;99.90;;;;;;5166837;27;20224;-66
2021/07/15 10:56:46;;;;;;;9.93;3.65;;;25.70;99.90;;;;;;5161618;27;20190;-65
2021/07/15 10:59:34;;;;;;;6.30;3.90;;;25.40;99.90;;;;;;5147673;27;20209;-66
2021/07/15 11:02:23;;;;;;;9.93;3.83;;;25.40;99.90;;;;;;5149008;27;20194;-66
2021/07/15 11:05:27;;;;;;;8.18;4.32;;;25.50;99.90;;;;;;5145417;27;20190;-66
2021/07/15 11:08:16;;;;;;;7.75;4.78;;;25.90;99.90;;;;;;5143967;27;20225;-65
2021/07/15 11:11:05;;;;;;;13.30;4.50;;;26.50;99.90;;;;;;5140452;27;20305;-66
2021/07/15 11:13:52;;;;;;;9.88;4.20;;;27.10;99.90;;;;;;5148841;27;20209;-66
2021/07/15 11:16:50;;;;;;;12.43;4.78;;;27.20;99.90;;;;;;5168862;27;20576;-66
2021/07/15 11:19:55;;;;;;;18.60;4.97;;;27.30;99.90;;;;;;5167690;27;20225;-67
2021/07/15 11:22:50;;;;;;;14.90;5.13;;;27.60;99.90;;;;;;5167822;27;20541;-66
2021/07/15 11:25:41;;;;;;;9.70;5.38;;;27.90;99.90;;;;;;5167421;27;20220;-66
2021/07/15 11:28:30;;;;;;;14.13;5.78;;;28.10;99.90;;;;;;5141496;27;20182;-67
2021/07/15 11:31:39;;;;;;;11.00;5.05;;;27.90;99.90;;;;;;5135338;27;20211;-66
2021/07/15 11:34:45;;;;;;;13.95;5.82;;;27.70;99.90;;;;;;5131150;27;20201;-66
2021/07/15 11:37:37;;;;;;;11.70;5.85;;;27.70;99.90;;;;;;5144863;27;20243;-66
2021/07/15 11:40:47;;;;;;;10.38;5.40;;;27.60;99.90;;;;;;5153722;27;20317;-65
2021/07/15 11:43:37;;;;;;;11.38;6.00;;;27.60;99.90;;;;;;5151905;27;20928;-66
2021/07/15 11:46:25;;;;;;;16.08;6.32;;;27.60;99.90;;;;;;5142829;27;20210;-66
2021/07/15 11:49:22;;;;;;;13.85;6.13;;;27.50;99.90;;;;;;5143427;27;20186;-66
2021/07/15 11:52:12;;;;;;;13.73;7.00;;;27.50;99.90;;;;;;5127371;27;20206;-65
2021/07/15 11:54:59;;;;;;;12.95;6.10;;;27.50;99.90;;;;;;5134413;27;20307;-67
2021/07/15 11:57:47;;;;;;;12.65;6.25;;;27.50;99.90;;;;;;5129164;27;20679;-66
2021/07/15 12:00:36;;;;;;;18.35;6.57;;;27.50;99.90;;;;;;5152227;27;20218;-66
2021/07/15 12:03:25;;;;;;;13.90;6.35;;;27.40;99.90;;;;;;5115643;27;20203;-65
2021/07/15 12:06:12;;;;;;;12.07;5.97;;;27.40;99.90;;;;;;5125879;27;20199;-66
2021/07/15 12:09:06;;;;;;;17.55;6.60;;;27.60;99.90;;;;;;5139170;27;20214;-66
2021/07/15 12:11:54;;;;;;;14.98;6.47;;;27.80;99.90;;;;;;5149620;27;20194;-66
2021/07/15 12:14:41;;;;;;;13.57;6.45;;;27.90;99.90;;;;;;5140982;27;20669;-66
2021/07/15 12:17:32;;;;;;;15.15;6.78;;;28.00;99.90;;;;;;5151671;27;20669;-66
2021/07/15 12:20:20;;;;;;;16.08;6.75;;;28.10;99.90;;;;;;5150815;27;20206;-66
2021/07/15 12:23:12;;;;;;;16.75;7.57;;;28.40;99.90;;;;;;5143691;27;20230;-65
2021/07/15 12:26:00;;;;;;;15.52;6.90;;;28.60;99.90;;;;;;5147176;27;20558;-66
2021/07/15 12:28:48;;;;;;;14.15;6.40;;;29.10;99.90;;;;;;5143634;27;20278;-66
2021/07/15 12:31:36;;;;;;;17.25;7.03;;;28.90;99.90;;;;;;5151160;27;20194;-66
2021/07/15 12:34:25;;;;;;;19.40;7.50;;;29.00;99.90;;;;;;5145787;27;20202;-67
2021/07/15 12:37:13;;;;;;;14.13;7.03;;;29.20;99.90;;;;;;5151323;27;20209;-66
2021/07/15 12:40:00;;;;;;;15.13;6.80;;;29.50;99.90;;;;;;5126669;27;20230;-66
2021/07/15 12:42:48;;;;;;;18.33;7.18;;;29.70;99.90;;;;;;5141266;27;20195;-66
2021/07/15 12:45:36;;;;;;;19.30;8.27;;;29.70;99.90;;;;;;5119117;27;20195;-66
2021/07/15 12:48:23;;;;;;;12.23;7.18;;;30.00;99.90;;;;;;5129383;27;20195;-66
2021/07/15 12:51:13;;;;;;;15.27;7.20;;;30.00;99.90;;;;;;5134874;27;20303;-66
2021/07/15 12:54:01;;;;;;;14.15;7.05;;;29.90;99.90;;;;;;5138836;27;20198;-65
2021/07/15 12:56:49;;;;;;;15.63;6.88;;;30.10;99.90;;;;;;5152706;27;20202;-66
2021/07/15 12:59:38;;;;;;;14.73;7.03;;;30.50;99.90;;;;;;5151801;27;20214;-66
2021/07/15 13:02:31;;;;;;;17.65;9.02;;;30.90;99.90;;;;;;5153090;27;20198;-66
2021/07/15 13:05:20;;;;;;;17.15;7.13;;;31.00;99.90;;;;;;5152239;27;20194;-65
2021/07/15 13:08:10;;;;;;;13.75;7.43;;;30.90;99.90;;;;;;5152090;27;20205;-65
2021/07/15 13:14:18;;;;;;;10.23;6.45;;;30.60;99.90;;;;;;5131022;27;20202;-66
2021/07/15 13:17:06;;;;;;;17.60;6.72;;;30.80;99.90;;;;;;5137349;27;20213;-66
2021/07/15 13:19:53;;;;;;;15.50;6.72;;;31.00;99.90;;;;;;5122860;27;20230;-66
2021/07/15 13:22:42;;;;;;;18.90;7.20;;;31.20;99.90;;;;;;5133487;27;20210;-66
2021/07/15 13:25:31;;;;;;;13.10;6.68;;;31.40;99.90;;;;;;5151417;27;20683;-66
2021/07/15 13:28:19;;;;;;;14.93;7.45;;;31.40;99.90;;;;;;5150866;27;20194;-66
2021/07/15 13:31:14;;;;;;;16.30;6.70;;;31.60;99.90;;;;;;5151249;27;20738;-66
2021/07/15 13:34:07;;;;;;;15.43;8.13;;;31.50;99.90;;;;;;5149467;27;20239;-66
2021/07/15 13:36:57;;;;;;;15.95;7.50;;;31.60;99.90;;;;;;5124220;27;20555;-66
2021/07/15 13:39:46;;;;;;;21.40;7.57;;;31.60;99.90;;;;;;5132111;27;20218;-67
2021/07/15 13:42:36;;;;;;;13.98;6.90;;;31.70;99.90;;;;;;5124222;27;20550;-67
2021/07/15 13:45:25;;;;;;;15.07;6.68;;;31.70;99.90;;;;;;5142017;27;20205;-66
2021/07/15 13:48:16;;;;;;;15.80;7.95;;;31.60;99.90;;;;;;5145305;27;20202;-66
2021/07/15 13:51:06;;;;;;;17.30;7.85;;;31.60;99.90;;;;;;5141811;27;20202;-66
2021/07/15 13:53:54;;;;;;;13.95;6.63;;;31.80;99.90;;;;;;5131576;27;20194;-66
2021/07/15 13:56:42;;;;;;;13.82;7.40;;;32.00;99.90;;;;;;5124720;27;20198;-67
2021/07/15 13:59:31;;;;;;;15.68;7.22;;;32.30;99.90;;;;;;5139118;27;20214;-66
2021/07/15 14:02:18;;;;;;;17.52;7.80;;;32.40;99.90;;;;;;5130832;27;20201;-66
2021/07/15 14:05:07;;;;;;;13.32;7.00;;;32.20;99.90;;;;;;5135555;27;20563;-67
2021/07/15 14:07:55;;;;;;;12.90;6.90;;;32.40;99.90;;;;;;5152241;27;20198;-67
2021/07/15 14:10:43;;;;;;;12.43;5.88;;;32.40;99.90;;;;;;5135833;27;20638;-66
2021/07/15 14:13:31;;;;;;;11.60;6.25;;;31.90;99.90;;;;;;5133521;27;20202;-67
2021/07/15 14:16:20;;;;;;;12.90;7.30;;;31.90;99.90;;;;;;5150506;27;20254;-66
2021/07/15 14:19:08;;;;;;;51.70;17.88;;;32.30;99.90;;;;;;5128517;27;20233;-67
2021/07/15 14:21:56;;;;;;;20.45;7.80;;;32.10;99.90;;;;;;5118647;27;20202;-66
2021/07/15 14:24:44;;;;;;;20.45;10.27;;;32.30;99.90;;;;;;5136707;27;20225;-67
2021/07/15 14:27:31;;;;;;;16.52;9.05;;;32.40;99.90;;;;;;5116141;27;20194;-67
2021/07/15 14:30:22;;;;;;;14.68;6.80;;;32.50;99.90;;;;;;5141936;27;20193;-67
2021/07/15 14:33:11;;;;;;;12.95;6.75;;;32.70;99.90;;;;;;5120406;27;20239;-66
2021/07/15 14:35:59;;;;;;;15.93;6.28;;;32.50;99.90;;;;;;5130469;27;20201;-66
2021/07/15 14:38:46;;;;;;;16.98;6.60;;;32.30;99.90;;;;;;5131464;27;20634;-66